sensor_id;sensor_type;location;lat;lon;timestamp;pressure;altitude;pressure_sealevel;temperature
7389;BMP180;3735;50.136;11.062;2023-04-06T00:02:08;98563.00;;;-2.60
7389;BMP180;3735;50.136;11.062;2023-04-06T00:04:34;98564.00;;;-2.60
7389;BMP180;3735;50.136;11.062;2023-04-06T00:07:00;98563.00;;;-2.70
7389;BMP180;3735;50.136;11.062;2023-04-06T00:09:26;98567.00;;;-2.80
7389;BMP180;3735;50.136;11.062;2023-04-06T00:11:52;98565.00;;;-2.80
7389;BMP180;3735;50.136;11.062;2023-04-06T00:14:18;98560.00;;;-2.80
7389;BMP180;3735;50.136;11.062;2023-04-06T00:16:44;98552.00;;;-2.80
7389;BMP180;3735;50.136;11.062;2023-04-06T00:19:10;98567.00;;;-2.80
7389;BMP180;3735;50.136;11.062;2023-04-06T00:21:35;98556.00;;;-2.80
7389;BMP180;3735;50.136;11.062;2023-04-06T00:24:01;98552.00;;;-2.90
7389;BMP180;3735;50.136;11.062;2023-04-06T00:26:29;98552.00;;;-2.90
7389;BMP180;3735;50.136;11.062;2023-04-06T00:28:55;98555.00;;;-2.80
7389;BMP180;3735;50.136;11.062;2023-04-06T00:31:21;98548.00;;;-2.80
7389;BMP180;3735;50.136;11.062;2023-04-06T00:33:48;98549.00;;;-2.90
7389;BMP180;3735;50.136;11.062;2023-04-06T00:36:14;98555.00;;;-3.00
7389;BMP180;3735;50.136;11.062;2023-04-06T00:38:40;98547.00;;;-3.00
7389;BMP180;3735;50.136;11.062;2023-04-06T00:41:06;98549.00;;;-2.90
7389;BMP180;3735;50.136;11.062;2023-04-06T00:43:32;98551.00;;;-2.90
7389;BMP180;3735;50.136;11.062;2023-04-06T00:45:58;98549.00;;;-2.90
7389;BMP180;3735;50.136;11.062;2023-04-06T00:48:23;98545.00;;;-3.00
7389;BMP180;3735;50.136;11.062;2023-04-06T00:50:49;98547.00;;;-3.10
7389;BMP180;3735;50.136;11.062;2023-04-06T00:53:15;98500.00;;;-3.10
7389;BMP180;3735;50.136;11.062;2023-04-06T00:55:41;98547.00;;;-3.10
7389;BMP180;3735;50.136;11.062;2023-04-06T00:58:07;98550.00;;;-3.20
7389;BMP180;3735;50.136;11.062;2023-04-06T01:00:33;98547.00;;;-3.20
7389;BMP180;3735;50.136;11.062;2023-04-06T01:02:59;98539.00;;;-3.30
7389;BMP180;3735;50.136;11.062;2023-04-06T01:05:25;98549.00;;;-3.20
7389;BMP180;3735;50.136;11.062;2023-04-06T01:07:51;98548.00;;;-3.10
7389;BMP180;3735;50.136;11.062;2023-04-06T01:10:27;98550.00;;;-3.20
7389;BMP180;3735;50.136;11.062;2023-04-06T01:12:54;98544.00;;;-3.30
7389;BMP180;3735;50.136;11.062;2023-04-06T01:15:20;98543.00;;;-3.30
7389;BMP180;3735;50.136;11.062;2023-04-06T01:17:47;98539.00;;;-3.30
7389;BMP180;3735;50.136;11.062;2023-04-06T01:20:13;98541.00;;;-3.30
7389;BMP180;3735;50.136;11.062;2023-04-06T01:22:39;98541.00;;;-3.40
7389;BMP180;3735;50.136;11.062;2023-04-06T01:25:06;98531.00;;;-3.40
7389;BMP180;3735;50.136;11.062;2023-04-06T01:27:32;98528.00;;;-3.40
7389;BMP180;3735;50.136;11.062;2023-04-06T01:29:58;98535.00;;;-3.40
7389;BMP180;3735;50.136;11.062;2023-04-06T01:32:25;98531.00;;;-3.40
7389;BMP180;3735;50.136;11.062;2023-04-06T01:34:51;98527.00;;;-3.50
7389;BMP180;3735;50.136;11.062;2023-04-06T01:37:16;98530.00;;;-3.50
7389;BMP180;3735;50.136;11.062;2023-04-06T01:39:44;98530.00;;;-3.50
7389;BMP180;3735;50.136;11.062;2023-04-06T01:42:10;98526.00;;;-3.50
7389;BMP180;3735;50.136;11.062;2023-04-06T01:44:36;98517.00;;;-3.60
7389;BMP180;3735;50.136;11.062;2023-04-06T01:47:02;98521.00;;;-3.60
7389;BMP180;3735;50.136;11.062;2023-04-06T01:49:28;98519.00;;;-3.60
7389;BMP180;3735;50.136;11.062;2023-04-06T01:51:54;98524.00;;;-3.60
7389;BMP180;3735;50.136;11.062;2023-04-06T01:54:20;98523.00;;;-3.60
7389;BMP180;3735;50.136;11.062;2023-04-06T01:56:46;98526.00;;;-3.60
7389;BMP180;3735;50.136;11.062;2023-04-06T01:59:12;98508.00;;;-3.60
7389;BMP180;3735;50.136;11.062;2023-04-06T02:01:38;98518.00;;;-3.60
7389;BMP180;3735;50.136;11.062;2023-04-06T02:04:04;98515.00;;;-3.60
7389;BMP180;3735;50.136;11.062;2023-04-06T02:06:29;98518.00;;;-3.70
7389;BMP180;3735;50.136;11.062;2023-04-06T02:08:56;98512.00;;;-3.70
7389;BMP180;3735;50.136;11.062;2023-04-06T02:11:22;98513.00;;;-3.80
7389;BMP180;3735;50.136;11.062;2023-04-06T02:13:47;98503.00;;;-3.70
7389;BMP180;3735;50.136;11.062;2023-04-06T02:16:13;98511.00;;;-3.70
7389;BMP180;3735;50.136;11.062;2023-04-06T02:18:40;98515.00;;;-3.70
7389;BMP180;3735;50.136;11.062;2023-04-06T02:21:06;98488.00;;;-3.70
7389;BMP180;3735;50.136;11.062;2023-04-06T02:23:31;98508.00;;;-3.70
7389;BMP180;3735;50.136;11.062;2023-04-06T02:25:57;98519.00;;;-3.70
7389;BMP180;3735;50.136;11.062;2023-04-06T02:28:23;98497.00;;;-3.80
7389;BMP180;3735;50.136;11.062;2023-04-06T02:30:49;98504.00;;;-3.70
7389;BMP180;3735;50.136;11.062;2023-04-06T02:33:15;98505.00;;;-3.70
7389;BMP180;3735;50.136;11.062;2023-04-06T02:35:40;98515.00;;;-3.80
7389;BMP180;3735;50.136;11.062;2023-04-06T02:38:06;98511.00;;;-3.70
7389;BMP180;3735;50.136;11.062;2023-04-06T02:40:32;98506.00;;;-3.60
7389;BMP180;3735;50.136;11.062;2023-04-06T02:42:58;98505.00;;;-3.50
7389;BMP180;3735;50.136;11.062;2023-04-06T02:45:23;98497.00;;;-3.40
7389;BMP180;3735;50.136;11.062;2023-04-06T02:47:50;98506.00;;;-3.40
7389;BMP180;3735;50.136;11.062;2023-04-06T02:50:16;98507.00;;;-3.30
7389;BMP180;3735;50.136;11.062;2023-04-06T02:52:42;98508.00;;;-3.30
7389;BMP180;3735;50.136;11.062;2023-04-06T02:55:08;98453.00;;;-3.10
7389;BMP180;3735;50.136;11.062;2023-04-06T02:57:34;98507.00;;;-3.20
7389;BMP180;3735;50.136;11.062;2023-04-06T03:00:00;98508.00;;;-3.20
7389;BMP180;3735;50.136;11.062;2023-04-06T03:02:25;98500.00;;;-3.20
7389;BMP180;3735;50.136;11.062;2023-04-06T03:04:51;98500.00;;;-3.20
7389;BMP180;3735;50.136;11.062;2023-04-06T03:07:17;98499.00;;;-3.10
7389;BMP180;3735;50.136;11.062;2023-04-06T03:09:43;98503.00;;;-3.10
7389;BMP180;3735;50.136;11.062;2023-04-06T03:12:08;98503.00;;;-3.10
7389;BMP180;3735;50.136;11.062;2023-04-06T03:14:34;98500.00;;;-3.10
7389;BMP180;3735;50.136;11.062;2023-04-06T03:17:00;98498.00;;;-3.20
7389;BMP180;3735;50.136;11.062;2023-04-06T03:19:26;98510.00;;;-3.30
7389;BMP180;3735;50.136;11.062;2023-04-06T03:21:52;98504.00;;;-3.30
7389;BMP180;3735;50.136;11.062;2023-04-06T03:24:18;98512.00;;;-3.30
7389;BMP180;3735;50.136;11.062;2023-04-06T03:26:44;98504.00;;;-3.40
7389;BMP180;3735;50.136;11.062;2023-04-06T03:29:09;98501.00;;;-3.50
7389;BMP180;3735;50.136;11.062;2023-04-06T03:31:35;98504.00;;;-3.50
7389;BMP180;3735;50.136;11.062;2023-04-06T03:34:01;98501.00;;;-3.50
7389;BMP180;3735;50.136;11.062;2023-04-06T03:36:27;98504.00;;;-3.50
7389;BMP180;3735;50.136;11.062;2023-04-06T03:38:53;98502.00;;;-3.30
7389;BMP180;3735;50.136;11.062;2023-04-06T03:41:21;98511.00;;;-3.20
7389;BMP180;3735;50.136;11.062;2023-04-06T03:43:47;98513.00;;;-3.10
7389;BMP180;3735;50.136;11.062;2023-04-06T03:46:13;98501.00;;;-3.10
7389;BMP180;3735;50.136;11.062;2023-04-06T03:48:39;98505.00;;;-3.00
7389;BMP180;3735;50.136;11.062;2023-04-06T03:51:05;98503.00;;;-2.90
7389;BMP180;3735;50.136;11.062;2023-04-06T03:53:31;98499.00;;;-3.10
7389;BMP180;3735;50.136;11.062;2023-04-06T03:55:56;98500.00;;;-3.10
7389;BMP180;3735;50.136;11.062;2023-04-06T03:58:22;98506.00;;;-3.10
7389;BMP180;3735;50.136;11.062;2023-04-06T04:00:48;98513.00;;;-3.10
7389;BMP180;3735;50.136;11.062;2023-04-06T04:03:14;98513.00;;;-3.20
7389;BMP180;3735;50.136;11.062;2023-04-06T04:05:40;98509.00;;;-3.30
7389;BMP180;3735;50.136;11.062;2023-04-06T04:08:05;98507.00;;;-3.40
7389;BMP180;3735;50.136;11.062;2023-04-06T04:10:31;98505.00;;;-3.60
7389;BMP180;3735;50.136;11.062;2023-04-06T04:12:57;98506.00;;;-3.70
7389;BMP180;3735;50.136;11.062;2023-04-06T04:15:23;98513.00;;;-3.80
7389;BMP180;3735;50.136;11.062;2023-04-06T04:17:49;98512.00;;;-3.70
7389;BMP180;3735;50.136;11.062;2023-04-06T04:20:16;98506.00;;;-3.80
7389;BMP180;3735;50.136;11.062;2023-04-06T04:22:42;98497.00;;;-3.70
7389;BMP180;3735;50.136;11.062;2023-04-06T04:25:09;98513.00;;;-3.80
7389;BMP180;3735;50.136;11.062;2023-04-06T04:27:35;98523.00;;;-3.90
7389;BMP180;3735;50.136;11.062;2023-04-06T04:30:01;98521.00;;;-4.00
7389;BMP180;3735;50.136;11.062;2023-04-06T04:32:28;98521.00;;;-4.00
7389;BMP180;3735;50.136;11.062;2023-04-06T04:34:54;98527.00;;;-4.00
7389;BMP180;3735;50.136;11.062;2023-04-06T04:37:20;98524.00;;;-3.90
7389;BMP180;3735;50.136;11.062;2023-04-06T04:39:46;98528.00;;;-3.70
7389;BMP180;3735;50.136;11.062;2023-04-06T04:42:12;98519.00;;;-3.60
7389;BMP180;3735;50.136;11.062;2023-04-06T04:44:37;98523.00;;;-3.50
7389;BMP180;3735;50.136;11.062;2023-04-06T04:47:04;98518.00;;;-3.50
7389;BMP180;3735;50.136;11.062;2023-04-06T04:49:30;98522.00;;;-3.60
7389;BMP180;3735;50.136;11.062;2023-04-06T04:51:56;98522.00;;;-3.60
7389;BMP180;3735;50.136;11.062;2023-04-06T04:54:22;98513.00;;;-3.50
7389;BMP180;3735;50.136;11.062;2023-04-06T04:56:48;98523.00;;;-3.40
7389;BMP180;3735;50.136;11.062;2023-04-06T04:59:14;98515.00;;;-3.40
7389;BMP180;3735;50.136;11.062;2023-04-06T05:01:40;98525.00;;;-3.50
7389;BMP180;3735;50.136;11.062;2023-04-06T05:04:05;98523.00;;;-3.60
7389;BMP180;3735;50.136;11.062;2023-04-06T05:06:31;98520.00;;;-3.60
7389;BMP180;3735;50.136;11.062;2023-04-06T05:08:57;98537.00;;;-3.60
7389;BMP180;3735;50.136;11.062;2023-04-06T05:11:23;98528.00;;;-3.50
7389;BMP180;3735;50.136;11.062;2023-04-06T05:13:49;98529.00;;;-3.50
7389;BMP180;3735;50.136;11.062;2023-04-06T05:16:14;98534.00;;;-3.50
7389;BMP180;3735;50.136;11.062;2023-04-06T05:18:40;98543.00;;;-3.40
7389;BMP180;3735;50.136;11.062;2023-04-06T05:21:06;98530.00;;;-3.30
7389;BMP180;3735;50.136;11.062;2023-04-06T05:23:32;98540.00;;;-3.20
7389;BMP180;3735;50.136;11.062;2023-04-06T05:25:58;98534.00;;;-2.80
7389;BMP180;3735;50.136;11.062;2023-04-06T05:28:24;98519.00;;;-1.40
7389;BMP180;3735;50.136;11.062;2023-04-06T05:30:50;98503.00;;;-0.10
7389;BMP180;3735;50.136;11.062;2023-04-06T05:33:16;98501.00;;;1.30
7389;BMP180;3735;50.136;11.062;2023-04-06T05:35:42;98501.00;;;2.10
7389;BMP180;3735;50.136;11.062;2023-04-06T05:38:09;98504.00;;;2.70
7389;BMP180;3735;50.136;11.062;2023-04-06T05:40:38;98502.00;;;3.30
7389;BMP180;3735;50.136;11.062;2023-04-06T05:43:07;98500.00;;;3.30
7389;BMP180;3735;50.136;11.062;2023-04-06T05:45:33;98508.00;;;2.70
7389;BMP180;3735;50.136;11.062;2023-04-06T05:48:01;98502.00;;;2.40
7389;BMP180;3735;50.136;11.062;2023-04-06T05:50:27;98491.00;;;2.00
7389;BMP180;3735;50.136;11.062;2023-04-06T05:52:54;98507.00;;;1.70
7389;BMP180;3735;50.136;11.062;2023-04-06T05:55:20;98510.00;;;1.40
7389;BMP180;3735;50.136;11.062;2023-04-06T05:57:45;98504.00;;;1.10
7389;BMP180;3735;50.136;11.062;2023-04-06T06:00:12;98511.00;;;0.90
7389;BMP180;3735;50.136;11.062;2023-04-06T06:02:38;98516.00;;;0.90
7389;BMP180;3735;50.136;11.062;2023-04-06T06:05:05;98504.00;;;0.90
7389;BMP180;3735;50.136;11.062;2023-04-06T06:07:31;98510.00;;;1.00
7389;BMP180;3735;50.136;11.062;2023-04-06T06:09:57;98522.00;;;1.00
7389;BMP180;3735;50.136;11.062;2023-04-06T06:12:23;98518.00;;;1.60
7389;BMP180;3735;50.136;11.062;2023-04-06T06:14:49;98505.00;;;3.00
7389;BMP180;3735;50.136;11.062;2023-04-06T06:17:15;98503.00;;;4.40
7389;BMP180;3735;50.136;11.062;2023-04-06T06:19:41;98477.00;;;5.40
7389;BMP180;3735;50.136;11.062;2023-04-06T06:22:07;98484.00;;;6.70
7389;BMP180;3735;50.136;11.062;2023-04-06T06:24:33;98477.00;;;7.50
7389;BMP180;3735;50.136;11.062;2023-04-06T06:26:59;98474.00;;;8.00
7389;BMP180;3735;50.136;11.062;2023-04-06T06:29:24;98466.00;;;8.60
7389;BMP180;3735;50.136;11.062;2023-04-06T06:31:50;98466.00;;;9.80
7389;BMP180;3735;50.136;11.062;2023-04-06T06:34:16;98459.00;;;10.20
7389;BMP180;3735;50.136;11.062;2023-04-06T06:36:42;98473.00;;;10.40
7389;BMP180;3735;50.136;11.062;2023-04-06T06:39:08;98469.00;;;10.80
7389;BMP180;3735;50.136;11.062;2023-04-06T06:41:34;98469.00;;;11.70
7389;BMP180;3735;50.136;11.062;2023-04-06T06:43:59;98466.00;;;12.40
7389;BMP180;3735;50.136;11.062;2023-04-06T06:46:25;98463.00;;;12.50
7389;BMP180;3735;50.136;11.062;2023-04-06T06:48:51;98465.00;;;12.80
7389;BMP180;3735;50.136;11.062;2023-04-06T06:51:17;98465.00;;;12.20
7389;BMP180;3735;50.136;11.062;2023-04-06T06:53:42;98461.00;;;13.20
7389;BMP180;3735;50.136;11.062;2023-04-06T06:56:08;98458.00;;;12.90
7389;BMP180;3735;50.136;11.062;2023-04-06T06:58:34;98459.00;;;13.60
7389;BMP180;3735;50.136;11.062;2023-04-06T07:01:00;98466.00;;;14.20
7389;BMP180;3735;50.136;11.062;2023-04-06T07:03:26;98466.00;;;14.30
7389;BMP180;3735;50.136;11.062;2023-04-06T07:05:52;98467.00;;;14.30
7389;BMP180;3735;50.136;11.062;2023-04-06T07:08:23;98470.00;;;14.50
7389;BMP180;3735;50.136;11.062;2023-04-06T07:10:51;98459.00;;;14.90
7389;BMP180;3735;50.136;11.062;2023-04-06T07:13:23;98457.00;;;15.10
7389;BMP180;3735;50.136;11.062;2023-04-06T07:15:50;98464.00;;;15.00
7389;BMP180;3735;50.136;11.062;2023-04-06T07:18:17;98466.00;;;15.30
7389;BMP180;3735;50.136;11.062;2023-04-06T07:20:43;98469.00;;;16.10
7389;BMP180;3735;50.136;11.062;2023-04-06T07:23:09;98463.00;;;16.00
7389;BMP180;3735;50.136;11.062;2023-04-06T07:25:35;98465.00;;;16.30
7389;BMP180;3735;50.136;11.062;2023-04-06T07:28:02;98467.00;;;15.80
7389;BMP180;3735;50.136;11.062;2023-04-06T07:30:29;98471.00;;;16.30
7389;BMP180;3735;50.136;11.062;2023-04-06T07:32:55;98466.00;;;16.60
7389;BMP180;3735;50.136;11.062;2023-04-06T07:35:25;98462.00;;;17.30
7389;BMP180;3735;50.136;11.062;2023-04-06T07:37:53;98471.00;;;17.20
7389;BMP180;3735;50.136;11.062;2023-04-06T07:40:19;98473.00;;;17.80
7389;BMP180;3735;50.136;11.062;2023-04-06T07:42:45;98477.00;;;17.20
7389;BMP180;3735;50.136;11.062;2023-04-06T07:45:11;98468.00;;;18.00
7389;BMP180;3735;50.136;11.062;2023-04-06T07:47:37;98479.00;;;17.20
7389;BMP180;3735;50.136;11.062;2023-04-06T07:50:04;98471.00;;;18.40
7389;BMP180;3735;50.136;11.062;2023-04-06T07:52:30;98473.00;;;18.30
7389;BMP180;3735;50.136;11.062;2023-04-06T07:54:58;98457.00;;;18.40
7389;BMP180;3735;50.136;11.062;2023-04-06T07:57:24;98464.00;;;18.00
7389;BMP180;3735;50.136;11.062;2023-04-06T07:59:50;98469.00;;;17.30
7389;BMP180;3735;50.136;11.062;2023-04-06T08:02:15;98473.00;;;16.80
7389;BMP180;3735;50.136;11.062;2023-04-06T08:04:43;98475.00;;;17.50
7389;BMP180;3735;50.136;11.062;2023-04-06T08:07:09;98462.00;;;17.70
7389;BMP180;3735;50.136;11.062;2023-04-06T08:09:35;98479.00;;;18.00
7389;BMP180;3735;50.136;11.062;2023-04-06T08:12:01;98469.00;;;18.20
7389;BMP180;3735;50.136;11.062;2023-04-06T08:14:27;98455.00;;;18.00
7389;BMP180;3735;50.136;11.062;2023-04-06T08:16:53;98472.00;;;17.70
7389;BMP180;3735;50.136;11.062;2023-04-06T08:19:19;98473.00;;;18.80
7389;BMP180;3735;50.136;11.062;2023-04-06T08:21:45;98477.00;;;18.90
7389;BMP180;3735;50.136;11.062;2023-04-06T08:24:12;98474.00;;;19.00
7389;BMP180;3735;50.136;11.062;2023-04-06T08:26:38;98469.00;;;18.70
7389;BMP180;3735;50.136;11.062;2023-04-06T08:29:04;98471.00;;;19.10
7389;BMP180;3735;50.136;11.062;2023-04-06T08:31:35;98466.00;;;19.20
7389;BMP180;3735;50.136;11.062;2023-04-06T08:34:04;98476.00;;;18.90
7389;BMP180;3735;50.136;11.062;2023-04-06T08:36:31;98473.00;;;18.90
7389;BMP180;3735;50.136;11.062;2023-04-06T08:38:57;98478.00;;;19.40
7389;BMP180;3735;50.136;11.062;2023-04-06T08:41:23;98473.00;;;19.10
7389;BMP180;3735;50.136;11.062;2023-04-06T08:44:00;98483.00;;;19.70
7389;BMP180;3735;50.136;11.062;2023-04-06T08:46:27;98479.00;;;19.40
7389;BMP180;3735;50.136;11.062;2023-04-06T08:48:59;98472.00;;;19.90
7389;BMP180;3735;50.136;11.062;2023-04-06T08:51:26;98473.00;;;19.90
7389;BMP180;3735;50.136;11.062;2023-04-06T08:53:59;98480.00;;;19.10
7389;BMP180;3735;50.136;11.062;2023-04-06T08:56:28;98477.00;;;19.80
7389;BMP180;3735;50.136;11.062;2023-04-06T08:58:55;98475.00;;;20.10
7389;BMP180;3735;50.136;11.062;2023-04-06T09:01:25;98477.00;;;20.70
7389;BMP180;3735;50.136;11.062;2023-04-06T09:03:58;98477.00;;;20.60
7389;BMP180;3735;50.136;11.062;2023-04-06T09:06:25;98473.00;;;20.40
7389;BMP180;3735;50.136;11.062;2023-04-06T09:08:54;98471.00;;;20.00
7389;BMP180;3735;50.136;11.062;2023-04-06T09:11:20;98470.00;;;20.30
7389;BMP180;3735;50.136;11.062;2023-04-06T09:13:54;98468.00;;;20.30
7389;BMP180;3735;50.136;11.062;2023-04-06T09:16:21;98475.00;;;20.40
7389;BMP180;3735;50.136;11.062;2023-04-06T09:18:49;98476.00;;;20.20
7389;BMP180;3735;50.136;11.062;2023-04-06T09:21:18;98473.00;;;21.20
7389;BMP180;3735;50.136;11.062;2023-04-06T09:23:44;98472.00;;;20.10
7389;BMP180;3735;50.136;11.062;2023-04-06T09:26:12;98469.00;;;20.50
7389;BMP180;3735;50.136;11.062;2023-04-06T09:28:58;98468.00;;;21.40
7389;BMP180;3735;50.136;11.062;2023-04-06T09:31:29;98470.00;;;21.20
7389;BMP180;3735;50.136;11.062;2023-04-06T09:33:56;98466.00;;;21.30
7389;BMP180;3735;50.136;11.062;2023-04-06T09:36:34;98463.00;;;21.90
7389;BMP180;3735;50.136;11.062;2023-04-06T09:39:04;98461.00;;;21.70
7389;BMP180;3735;50.136;11.062;2023-04-06T09:41:36;98452.00;;;21.70
7389;BMP180;3735;50.136;11.062;2023-04-06T09:46:38;98456.00;;;20.70
7389;BMP180;3735;50.136;11.062;2023-04-06T09:49:06;98456.00;;;19.90
7389;BMP180;3735;50.136;11.062;2023-04-06T09:51:46;98460.00;;;19.70
7389;BMP180;3735;50.136;11.062;2023-04-06T09:54:21;98455.00;;;19.50
7389;BMP180;3735;50.136;11.062;2023-04-06T10:00:01;98451.00;;;20.40
7389;BMP180;3735;50.136;11.062;2023-04-06T10:02:58;98458.00;;;20.50
7389;BMP180;3735;50.136;11.062;2023-04-06T10:05:48;98457.00;;;19.70
7389;BMP180;3735;50.136;11.062;2023-04-06T10:08:17;98456.00;;;19.70
7389;BMP180;3735;50.136;11.062;2023-04-06T10:10:44;98454.00;;;20.00
7389;BMP180;3735;50.136;11.062;2023-04-06T10:13:11;98454.00;;;20.60
7389;BMP180;3735;50.136;11.062;2023-04-06T10:15:38;98450.00;;;20.70
7389;BMP180;3735;50.136;11.062;2023-04-06T10:18:06;98453.00;;;19.90
7389;BMP180;3735;50.136;11.062;2023-04-06T10:20:48;98438.00;;;21.30
7389;BMP180;3735;50.136;11.062;2023-04-06T10:23:23;98442.00;;;20.40
7389;BMP180;3735;50.136;11.062;2023-04-06T10:28:20;98434.00;;;20.80
7389;BMP180;3735;50.136;11.062;2023-04-06T10:30:46;98435.00;;;21.30
7389;BMP180;3735;50.136;11.062;2023-04-06T10:33:19;98439.00;;;20.60
7389;BMP180;3735;50.136;11.062;2023-04-06T10:35:46;98424.00;;;19.80
7389;BMP180;3735;50.136;11.062;2023-04-06T10:38:12;98431.00;;;19.90
7389;BMP180;3735;50.136;11.062;2023-04-06T10:40:45;98432.00;;;19.30
7389;BMP180;3735;50.136;11.062;2023-04-06T10:43:21;98431.00;;;20.20
7389;BMP180;3735;50.136;11.062;2023-04-06T10:46:00;98429.00;;;20.10
7389;BMP180;3735;50.136;11.062;2023-04-06T10:48:41;98429.00;;;18.90
7389;BMP180;3735;50.136;11.062;2023-04-06T10:51:14;98425.00;;;19.10
7389;BMP180;3735;50.136;11.062;2023-04-06T10:53:45;98426.00;;;19.20
7389;BMP180;3735;50.136;11.062;2023-04-06T10:56:17;98427.00;;;19.30
7389;BMP180;3735;50.136;11.062;2023-04-06T10:58:50;98421.00;;;19.50
7389;BMP180;3735;50.136;11.062;2023-04-06T11:01:18;98415.00;;;19.90
7389;BMP180;3735;50.136;11.062;2023-04-06T11:03:48;98415.00;;;21.20
7389;BMP180;3735;50.136;11.062;2023-04-06T11:06:28;98407.00;;;21.40
7389;BMP180;3735;50.136;11.062;2023-04-06T11:08:55;98411.00;;;20.90
7389;BMP180;3735;50.136;11.062;2023-04-06T11:11:24;98411.00;;;22.00
7389;BMP180;3735;50.136;11.062;2023-04-06T11:13:57;98405.00;;;21.80
7389;BMP180;3735;50.136;11.062;2023-04-06T11:21:17;98400.00;;;21.60
7389;BMP180;3735;50.136;11.062;2023-04-06T11:23:43;98405.00;;;21.60
7389;BMP180;3735;50.136;11.062;2023-04-06T11:26:13;98405.00;;;20.40
7389;BMP180;3735;50.136;11.062;2023-04-06T11:28:41;98401.00;;;20.30
7389;BMP180;3735;50.136;11.062;2023-04-06T11:31:11;98396.00;;;21.30
7389;BMP180;3735;50.136;11.062;2023-04-06T11:33:40;98391.00;;;20.90
7389;BMP180;3735;50.136;11.062;2023-04-06T11:36:07;98407.00;;;20.80
7389;BMP180;3735;50.136;11.062;2023-04-06T11:38:33;98395.00;;;21.20
7389;BMP180;3735;50.136;11.062;2023-04-06T11:41:00;98399.00;;;20.30
7389;BMP180;3735;50.136;11.062;2023-04-06T11:43:31;98400.00;;;19.80
7389;BMP180;3735;50.136;11.062;2023-04-06T11:46:06;98391.00;;;19.80
7389;BMP180;3735;50.136;11.062;2023-04-06T11:48:46;98391.00;;;19.60
7389;BMP180;3735;50.136;11.062;2023-04-06T11:51:12;98384.00;;;21.10
7389;BMP180;3735;50.136;11.062;2023-04-06T11:53:46;98378.00;;;20.20
7389;BMP180;3735;50.136;11.062;2023-04-06T11:56:27;98390.00;;;20.70
7389;BMP180;3735;50.136;11.062;2023-04-06T11:58:58;98387.00;;;21.10
7389;BMP180;3735;50.136;11.062;2023-04-06T12:01:26;98390.00;;;19.20
7389;BMP180;3735;50.136;11.062;2023-04-06T12:03:52;98378.00;;;19.90
7389;BMP180;3735;50.136;11.062;2023-04-06T12:06:18;98377.00;;;20.80
7389;BMP180;3735;50.136;11.062;2023-04-06T12:08:45;98374.00;;;20.90
7389;BMP180;3735;50.136;11.062;2023-04-06T12:11:11;98380.00;;;20.20
7389;BMP180;3735;50.136;11.062;2023-04-06T12:13:37;98369.00;;;21.20
7389;BMP180;3735;50.136;11.062;2023-04-06T12:16:03;98372.00;;;21.80
7389;BMP180;3735;50.136;11.062;2023-04-06T12:18:30;98373.00;;;21.10
7389;BMP180;3735;50.136;11.062;2023-04-06T12:20:56;98371.00;;;20.10
7389;BMP180;3735;50.136;11.062;2023-04-06T12:23:22;98372.00;;;18.70
7389;BMP180;3735;50.136;11.062;2023-04-06T12:25:48;98367.00;;;19.40
7389;BMP180;3735;50.136;11.062;2023-04-06T12:28:13;98370.00;;;19.00
7389;BMP180;3735;50.136;11.062;2023-04-06T12:30:39;98357.00;;;20.50
7389;BMP180;3735;50.136;11.062;2023-04-06T12:33:06;98350.00;;;21.40
7389;BMP180;3735;50.136;11.062;2023-04-06T12:35:37;98351.00;;;22.50
7389;BMP180;3735;50.136;11.062;2023-04-06T12:38:04;98351.00;;;21.80
7389;BMP180;3735;50.136;11.062;2023-04-06T12:40:30;98356.00;;;20.90
7389;BMP180;3735;50.136;11.062;2023-04-06T12:42:55;98352.00;;;21.40
7389;BMP180;3735;50.136;11.062;2023-04-06T12:45:21;98355.00;;;21.90
7389;BMP180;3735;50.136;11.062;2023-04-06T12:47:47;98350.00;;;20.80
7389;BMP180;3735;50.136;11.062;2023-04-06T12:50:13;98349.00;;;19.60
7389;BMP180;3735;50.136;11.062;2023-04-06T12:52:39;98346.00;;;19.10
7389;BMP180;3735;50.136;11.062;2023-04-06T12:55:05;98346.00;;;19.40
7389;BMP180;3735;50.136;11.062;2023-04-06T12:57:31;98340.00;;;19.40
7389;BMP180;3735;50.136;11.062;2023-04-06T12:59:57;98341.00;;;19.40
7389;BMP180;3735;50.136;11.062;2023-04-06T13:02:24;98338.00;;;20.50
7389;BMP180;3735;50.136;11.062;2023-04-06T13:04:49;98332.00;;;19.80
7389;BMP180;3735;50.136;11.062;2023-04-06T13:07:16;98336.00;;;19.90
7389;BMP180;3735;50.136;11.062;2023-04-06T13:09:42;98337.00;;;19.40
7389;BMP180;3735;50.136;11.062;2023-04-06T13:12:07;98331.00;;;19.30
7389;BMP180;3735;50.136;11.062;2023-04-06T13:14:33;98337.00;;;19.40
7389;BMP180;3735;50.136;11.062;2023-04-06T13:17:00;98332.00;;;18.70
7389;BMP180;3735;50.136;11.062;2023-04-06T13:19:26;98341.00;;;18.70
7389;BMP180;3735;50.136;11.062;2023-04-06T13:21:52;98335.00;;;18.90
7389;BMP180;3735;50.136;11.062;2023-04-06T13:24:18;98324.00;;;20.40
7389;BMP180;3735;50.136;11.062;2023-04-06T13:26:45;98332.00;;;21.20
7389;BMP180;3735;50.136;11.062;2023-04-06T13:29:10;98325.00;;;21.80
7389;BMP180;3735;50.136;11.062;2023-04-06T13:31:36;98324.00;;;22.00
7389;BMP180;3735;50.136;11.062;2023-04-06T13:34:03;98319.00;;;22.80
7389;BMP180;3735;50.136;11.062;2023-04-06T13:36:29;98316.00;;;22.70
7389;BMP180;3735;50.136;11.062;2023-04-06T13:38:56;98318.00;;;21.20
7389;BMP180;3735;50.136;11.062;2023-04-06T13:41:25;98319.00;;;20.30
7389;BMP180;3735;50.136;11.062;2023-04-06T13:43:52;98320.00;;;20.10
7389;BMP180;3735;50.136;11.062;2023-04-06T13:46:18;98309.00;;;21.00
7389;BMP180;3735;50.136;11.062;2023-04-06T13:48:44;98312.00;;;22.20
7389;BMP180;3735;50.136;11.062;2023-04-06T13:51:11;98305.00;;;20.20
7389;BMP180;3735;50.136;11.062;2023-04-06T13:53:38;98312.00;;;19.50
7389;BMP180;3735;50.136;11.062;2023-04-06T13:56:06;98304.00;;;19.70
7389;BMP180;3735;50.136;11.062;2023-04-06T13:58:32;98307.00;;;19.80
7389;BMP180;3735;50.136;11.062;2023-04-06T14:01:06;98306.00;;;19.40
7389;BMP180;3735;50.136;11.062;2023-04-06T14:03:33;98307.00;;;20.00
7389;BMP180;3735;50.136;11.062;2023-04-06T14:05:59;98302.00;;;21.50
7389;BMP180;3735;50.136;11.062;2023-04-06T14:08:25;98303.00;;;20.20
7389;BMP180;3735;50.136;11.062;2023-04-06T14:10:51;98309.00;;;19.60
7389;BMP180;3735;50.136;11.062;2023-04-06T14:13:17;98308.00;;;20.30
7389;BMP180;3735;50.136;11.062;2023-04-06T14:15:43;98300.00;;;20.60
7389;BMP180;3735;50.136;11.062;2023-04-06T14:18:09;98303.00;;;20.10
7389;BMP180;3735;50.136;11.062;2023-04-06T14:20:34;98299.00;;;20.70
7389;BMP180;3735;50.136;11.062;2023-04-06T14:23:01;98287.00;;;21.30
7389;BMP180;3735;50.136;11.062;2023-04-06T14:25:27;98292.00;;;21.90
7389;BMP180;3735;50.136;11.062;2023-04-06T14:27:53;98291.00;;;22.80
7389;BMP180;3735;50.136;11.062;2023-04-06T14:30:19;98289.00;;;21.30
7389;BMP180;3735;50.136;11.062;2023-04-06T14:32:45;98287.00;;;22.10
7389;BMP180;3735;50.136;11.062;2023-04-06T14:35:11;98298.00;;;21.00